createdAt,value
2018-11-07T00:00:17.052Z,100068.17
2018-11-07T00:02:47.411Z,100067.64
2018-11-07T00:05:17.664Z,100070.55
2018-11-07T00:07:46.085Z,100079.05
2018-11-07T00:11:18.341Z,100075.73
2018-11-07T00:13:47.744Z,100068.43
2018-11-07T00:16:17.524Z,100068.67
2018-11-07T00:18:48.906Z,100061.55
2018-11-07T00:21:28.119Z,100070.94
2018-11-07T00:23:57.190Z,100073.61
2018-11-07T00:26:33.371Z,100076.92
2018-11-07T00:29:21.736Z,100088.46
2018-11-07T00:32:10.257Z,100083.03
2018-11-07T00:34:53.577Z,100083.94
2018-11-07T00:37:22.190Z,100081.20
2018-11-07T00:39:51.257Z,100079.94
2018-11-07T00:42:19.447Z,100074.54
2018-11-07T00:44:47.524Z,100074.47
2018-11-07T00:47:15.692Z,100078.80
2018-11-07T00:49:43.813Z,100084.17
2018-11-07T00:52:11.935Z,100082.08
2018-11-07T00:54:40.095Z,100079.47
2018-11-07T00:57:08.927Z,100082.38
2018-11-07T00:59:37.200Z,100069.03
2018-11-07T01:02:05.346Z,100067.61
2018-11-07T01:04:33.500Z,100058.94
2018-11-07T01:07:01.617Z,100065.83
2018-11-07T01:09:29.775Z,100069.96
2018-11-07T01:11:57.838Z,100080.87
2018-11-07T01:14:25.960Z,100080.34
2018-11-07T01:16:54.100Z,100078.63
2018-11-07T01:19:22.244Z,100073.11
2018-11-07T01:21:50.341Z,100078.83
2018-11-07T01:24:18.578Z,100089.55
2018-11-07T01:26:46.672Z,100089.26
2018-11-07T01:29:14.799Z,100085.69
2018-11-07T01:31:42.942Z,100085.39
2018-11-07T01:34:11.090Z,100080.82
2018-11-07T01:36:39.115Z,100083.02
2018-11-07T01:39:08.481Z,100080.66
2018-11-07T01:41:36.596Z,100082.28
2018-11-07T01:44:04.740Z,100087.11
2018-11-07T01:46:32.903Z,100082.90
2018-11-07T01:49:01.023Z,100087.95
2018-11-07T01:51:29.150Z,100087.41
2018-11-07T01:53:57.288Z,100080.12
2018-11-07T01:56:25.451Z,100080.01
2018-11-07T01:58:53.564Z,100083.95
2018-11-07T02:01:21.682Z,100081.27
2018-11-07T02:03:49.816Z,100079.64
2018-11-07T02:06:17.943Z,100073.94
2018-11-07T02:08:46.060Z,100073.66
2018-11-07T02:11:14.188Z,100078.79
2018-11-07T02:13:42.401Z,100080.97
2018-11-07T02:16:10.530Z,100081.63
2018-11-07T02:18:38.734Z,100087.34
2018-11-07T02:21:06.883Z,100088.12
2018-11-07T02:23:34.984Z,100084.09
2018-11-07T02:26:03.096Z,100087.45
2018-11-07T02:28:31.216Z,100080.58
2018-11-07T02:30:59.356Z,100079.98
2018-11-07T02:33:27.477Z,100078.75
2018-11-07T02:35:55.604Z,100076.59
2018-11-07T02:38:23.709Z,100079.85
2018-11-07T02:40:51.887Z,100071.25
2018-11-07T02:43:19.996Z,100068.98
2018-11-07T02:45:48.154Z,100070.86
2018-11-07T02:48:16.263Z,100073.39
2018-11-07T02:50:44.395Z,100079.11
2018-11-07T02:53:12.504Z,100083.97
2018-11-07T02:55:40.595Z,100071.89
2018-11-07T02:58:08.688Z,100072.80
2018-11-07T03:00:36.808Z,100079.12
2018-11-07T03:03:04.969Z,100085.50
2018-11-07T03:05:33.088Z,100092.99
2018-11-07T03:08:01.197Z,100093.27
2018-11-07T03:10:29.475Z,100095.25
2018-11-07T03:12:57.615Z,100089.36
2018-11-07T03:15:25.764Z,100088.95
2018-11-07T03:17:53.876Z,100080.36
2018-11-07T03:20:21.986Z,100084.08
2018-11-07T03:22:50.095Z,100085.95
2018-11-07T03:25:18.221Z,100083.02
2018-11-07T03:27:46.473Z,100092.14
2018-11-07T03:30:14.598Z,100086.97
2018-11-07T03:32:42.708Z,100093.51
2018-11-07T03:35:16.177Z,100087.42
2018-11-07T03:37:44.352Z,100083.28
2018-11-07T03:40:12.457Z,100086.55
2018-11-07T03:42:40.563Z,100093.12
2018-11-07T03:45:09.058Z,100091.11
2018-11-07T03:47:37.148Z,100087.42
2018-11-07T03:50:05.635Z,100090.35
2018-11-07T03:52:33.775Z,100094.60
2018-11-07T03:55:01.885Z,100096.88
2018-11-07T03:57:30.039Z,100103.48
2018-11-07T03:59:58.148Z,100089.02
2018-11-07T04:02:26.305Z,100087.58
2018-11-07T04:04:54.441Z,100077.89
2018-11-07T04:07:22.555Z,100081.39
2018-11-07T04:09:50.669Z,100088.63
2018-11-07T04:12:18.876Z,100098.14
2018-11-07T04:14:46.980Z,100089.29
2018-11-07T04:17:15.084Z,100084.31
2018-11-07T04:19:43.228Z,100090.04
2018-11-07T04:22:11.311Z,100090.95
2018-11-07T04:24:39.407Z,100093.48
2018-11-07T04:27:07.523Z,100098.82
2018-11-07T04:29:35.627Z,100095.05
2018-11-07T04:32:10.417Z,100089.52
2018-11-07T04:34:38.568Z,100097.56
2018-11-07T04:37:06.663Z,100092.44
2018-11-07T04:39:34.780Z,100093.75
2018-11-07T04:42:02.998Z,100098.37
2018-11-07T04:44:31.076Z,100095.33
2018-11-07T04:46:59.230Z,100097.23
2018-11-07T04:49:27.415Z,100092.26
2018-11-07T04:51:55.595Z,100091.11
2018-11-07T04:54:23.715Z,100094.73
2018-11-07T04:56:51.816Z,100096.06
2018-11-07T04:59:19.934Z,100100.06
2018-11-07T05:01:48.058Z,100105.56
2018-11-07T05:04:16.163Z,100094.50
2018-11-07T05:06:44.299Z,100090.53
2018-11-07T05:09:12.403Z,100092.83
2018-11-07T05:11:40.487Z,100102.60
2018-11-07T05:14:08.597Z,100105.12
2018-11-07T05:16:36.697Z,100104.10
2018-11-07T05:19:04.860Z,100102.28
2018-11-07T05:21:33.002Z,100102.95
2018-11-07T05:24:01.126Z,100098.95
2018-11-07T05:26:29.260Z,100093.64
2018-11-07T05:28:57.375Z,100100.58
2018-11-07T05:31:25.849Z,100105.55
2018-11-07T05:33:54.240Z,100109.86
2018-11-07T05:36:22.341Z,100117.31
2018-11-07T05:38:50.434Z,100126.62
2018-11-07T05:41:18.608Z,100127.30
2018-11-07T05:43:47.040Z,100125.48
2018-11-07T05:46:15.170Z,100138.19
2018-11-07T05:48:43.288Z,100138.02
2018-11-07T05:51:11.395Z,100138.54
2018-11-07T05:53:39.501Z,100140.85
2018-11-07T05:56:07.587Z,100143.48
2018-11-07T05:58:35.700Z,100136.86
2018-11-07T06:01:03.809Z,100137.69
2018-11-07T06:03:31.938Z,100139.50
2018-11-07T06:06:00.041Z,100141.66
2018-11-07T06:08:28.295Z,100153.28
2018-11-07T06:10:56.395Z,100153.61
2018-11-07T06:13:24.519Z,100145.01
2018-11-07T06:15:52.632Z,100156.09
2018-11-07T06:18:20.813Z,100166.02
2018-11-07T06:20:48.917Z,100163.02
2018-11-07T06:23:17.019Z,100163.48
2018-11-07T06:25:45.097Z,100166.59
2018-11-07T06:28:13.211Z,100166.95
2018-11-07T06:30:41.333Z,100166.80
2018-11-07T06:33:09.517Z,100177.23
2018-11-07T06:35:37.619Z,100173.09
2018-11-07T06:38:05.747Z,100168.96
2018-11-07T06:40:33.909Z,100169.94
2018-11-07T06:43:02.031Z,100174.55
2018-11-07T06:45:30.138Z,100168.08
2018-11-07T06:47:58.251Z,100169.05
2018-11-07T06:50:26.361Z,100162.45
2018-11-07T06:52:54.500Z,100167.78
2018-11-07T06:55:22.598Z,100169.44
2018-11-07T06:57:50.687Z,100164.16
2018-11-07T07:00:18.781Z,100168.50
2018-11-07T07:02:47.903Z,100169.78
2018-11-07T07:05:16.368Z,100166.52
2018-11-07T07:07:44.488Z,100163.36
2018-11-07T07:10:14.824Z,100163.22
2018-11-07T07:12:43.075Z,100163.03
2018-11-07T07:15:14.177Z,100164.01
2018-11-07T07:17:42.441Z,100159.37
2018-11-07T07:20:14.036Z,100167.19
2018-11-07T07:22:42.729Z,100168.83
2018-11-07T07:25:11.871Z,100166.66
2018-11-07T07:27:40.334Z,100168.47
2018-11-07T07:30:11.205Z,100176.92
2018-11-07T07:32:39.759Z,100173.75
2018-11-07T07:35:07.882Z,100176.75
2018-11-07T07:37:35.995Z,100184.70
2018-11-07T07:40:04.704Z,100172.82
2018-11-07T07:42:32.920Z,100179.78
2018-11-07T07:45:01.014Z,100182.75
2018-11-07T07:47:29.103Z,100175.83
2018-11-07T07:49:57.309Z,100177.64
2018-11-07T07:52:25.392Z,100173.67
2018-11-07T07:54:53.501Z,100176.48
2018-11-07T07:57:21.663Z,100176.00
2018-11-07T07:59:49.829Z,100182.27
2018-11-07T08:02:18.071Z,100172.47
2018-11-07T08:04:46.261Z,100172.92
2018-11-07T08:07:14.373Z,100177.32
2018-11-07T08:09:42.494Z,100180.94
2018-11-07T08:12:10.628Z,100177.80
2018-11-07T08:14:38.768Z,100177.44
2018-11-07T08:17:06.946Z,100170.25
2018-11-07T08:19:35.081Z,100165.87
2018-11-07T08:22:03.193Z,100171.53
2018-11-07T08:24:31.356Z,100173.64
2018-11-07T08:26:59.579Z,100173.95
2018-11-07T08:29:27.683Z,100177.75
2018-11-07T08:31:55.814Z,100173.05
2018-11-07T08:34:23.924Z,100170.42
2018-11-07T08:36:52.054Z,100176.51
2018-11-07T08:39:20.151Z,100172.21
2018-11-07T08:41:48.259Z,100162.53
2018-11-07T08:44:16.379Z,100159.49
2018-11-07T08:46:44.488Z,100162.83
2018-11-07T08:49:12.600Z,100159.45
2018-11-07T08:51:40.703Z,100160.70
2018-11-07T08:54:08.891Z,100160.67
2018-11-07T08:56:37.133Z,100154.97
2018-11-07T08:59:05.387Z,100156.25
2018-11-07T09:04:01.753Z,100160.19
2018-11-07T09:06:29.891Z,100154.78
2018-11-07T09:08:57.982Z,100156.38
2018-11-07T09:11:26.103Z,100162.06
2018-11-07T09:13:54.248Z,100157.36
2018-11-07T09:16:22.364Z,100154.95
2018-11-07T09:18:50.467Z,100162.69
2018-11-07T09:21:18.572Z,100156.47
2018-11-07T09:23:46.763Z,100161.81
2018-11-07T09:26:14.940Z,100157.50
2018-11-07T09:28:43.058Z,100156.63
2018-11-07T09:31:11.174Z,100157.17
2018-11-07T09:33:39.268Z,100154.27
2018-11-07T09:36:07.380Z,100150.30
2018-11-07T09:38:35.489Z,100156.03
2018-11-07T09:41:03.638Z,100150.62
2018-11-07T09:43:31.741Z,100153.78
2018-11-07T09:45:59.884Z,100153.77
2018-11-07T09:48:27.992Z,100158.95
2018-11-07T09:50:56.240Z,100159.38
2018-11-07T09:53:24.353Z,100158.27
2018-11-07T09:55:52.487Z,100162.16
2018-11-07T09:58:20.605Z,100163.70
2018-11-07T10:00:48.704Z,100164.20
2018-11-07T10:03:16.811Z,100161.75
2018-11-07T10:05:44.932Z,100166.01
2018-11-07T10:08:13.093Z,100152.56
2018-11-07T10:10:41.240Z,100154.64
2018-11-07T10:13:09.373Z,100158.92
2018-11-07T10:15:37.516Z,100152.89
2018-11-07T10:18:05.712Z,100156.30
2018-11-07T10:20:33.946Z,100155.30
2018-11-07T10:23:01.965Z,100150.88
2018-11-07T10:25:30.071Z,100151.92
2018-11-07T10:27:58.715Z,100148.73
2018-11-07T10:30:26.352Z,100143.70
2018-11-07T10:32:54.451Z,100142.88
2018-11-07T10:35:22.569Z,100143.16
2018-11-07T10:37:50.743Z,100136.70
2018-11-07T10:40:20.252Z,100133.51
2018-11-07T10:42:48.498Z,100138.59
2018-11-07T10:45:16.625Z,100142.81
2018-11-07T10:47:45.838Z,100133.22
2018-11-07T10:50:14.915Z,100133.52
2018-11-07T10:52:43.959Z,100129.84
2018-11-07T10:55:12.920Z,100121.73
2018-11-07T10:57:41.055Z,100126.83
2018-11-07T11:00:17.592Z,100127.27
2018-11-07T11:02:45.743Z,100128.49
2018-11-07T11:05:14.593Z,100125.20
2018-11-07T11:07:42.914Z,100131.16
2018-11-07T11:10:12.464Z,100125.91
2018-11-07T11:12:40.937Z,100123.70
2018-11-07T11:15:09.172Z,100126.70
2018-11-07T11:17:37.367Z,100122.13
2018-11-07T11:20:07.374Z,100127.58
2018-11-07T11:22:35.588Z,100120.84
2018-11-07T11:25:03.715Z,100115.30
2018-11-07T11:27:31.922Z,100118.91
2018-11-07T11:30:00.077Z,100117.67
2018-11-07T11:32:28.195Z,100116.80
2018-11-07T11:34:56.420Z,100113.92
2018-11-07T11:37:24.518Z,100116.67
2018-11-07T11:39:52.671Z,100114.72
2018-11-07T11:42:20.775Z,100101.02
2018-11-07T11:44:48.887Z,100107.50
2018-11-07T11:47:17.056Z,100109.29
2018-11-07T11:49:45.332Z,100100.27
2018-11-07T11:52:13.461Z,100095.24
2018-11-07T11:54:41.564Z,100097.70
2018-11-07T11:57:09.663Z,100096.31
2018-11-07T11:59:38.087Z,100093.31
2018-11-07T12:02:05.946Z,100094.74
2018-11-07T12:04:34.055Z,100098.72
2018-11-07T12:07:02.177Z,100094.92
2018-11-07T12:09:30.335Z,100098.83
2018-11-07T12:11:58.489Z,100100.11
2018-11-07T12:14:26.611Z,100099.92
2018-11-07T12:16:54.730Z,100100.58
2018-11-07T12:19:22.831Z,100093.58
2018-11-07T12:21:51.256Z,100085.14
2018-11-07T12:24:19.363Z,100088.52
2018-11-07T12:26:47.527Z,100088.23
2018-11-07T12:29:15.620Z,100084.45
2018-11-07T12:31:43.795Z,100088.77
2018-11-07T12:34:11.935Z,100084.13
2018-11-07T12:36:40.047Z,100081.15
2018-11-07T12:39:08.688Z,100083.63
2018-11-07T12:41:36.815Z,100079.36
2018-11-07T12:44:05.033Z,100079.67
2018-11-07T12:46:33.143Z,100079.00
2018-11-07T12:49:01.438Z,100077.70
2018-11-07T12:51:29.557Z,100071.58
2018-11-07T12:53:57.741Z,100073.32
2018-11-07T12:56:25.819Z,100077.16
2018-11-07T12:58:53.954Z,100077.28
2018-11-07T13:01:22.138Z,100080.52
2018-11-07T13:03:50.240Z,100081.86
2018-11-07T13:06:18.344Z,100079.81
2018-11-07T13:08:46.441Z,100071.39
2018-11-07T13:11:14.570Z,100073.92
2018-11-07T13:13:42.656Z,100081.44
2018-11-07T13:16:10.758Z,100070.55
2018-11-07T13:18:38.871Z,100083.70
2018-11-07T13:21:06.984Z,100075.78
2018-11-07T13:23:35.124Z,100080.02
2018-11-07T13:26:03.213Z,100082.15
2018-11-07T13:28:31.348Z,100083.89
2018-11-07T13:30:59.455Z,100086.11
2018-11-07T13:33:27.553Z,100088.76
2018-11-07T13:35:55.699Z,100082.14
2018-11-07T13:38:24.180Z,100085.69
2018-11-07T13:40:51.943Z,100089.48
2018-11-07T13:43:20.092Z,100088.83
2018-11-07T13:45:48.225Z,100088.03
2018-11-07T13:48:16.364Z,100086.61
2018-11-07T13:50:44.568Z,100084.44
2018-11-07T13:53:12.738Z,100083.70
2018-11-07T13:55:40.869Z,100088.13
2018-11-07T13:58:08.968Z,100092.61
2018-11-07T14:00:37.067Z,100100.23
2018-11-07T14:03:05.340Z,100099.48
2018-11-07T14:05:33.588Z,100100.12
2018-11-07T14:08:01.714Z,100093.08
2018-11-07T14:10:29.802Z,100101.16
2018-11-07T14:12:57.938Z,100105.06
2018-11-07T14:15:26.027Z,100096.81
2018-11-07T14:17:54.156Z,100102.60
2018-11-07T14:20:22.286Z,100099.34
2018-11-07T14:22:50.370Z,100106.31
2018-11-07T14:25:18.465Z,100110.20
2018-11-07T14:27:46.788Z,100106.42
2018-11-07T14:30:16.030Z,100111.53
2018-11-07T14:32:51.588Z,100113.55
2018-11-07T14:35:19.774Z,100115.81
2018-11-07T14:37:47.865Z,100121.29
2018-11-07T14:40:16.047Z,100116.74
2018-11-07T14:42:44.146Z,100124.54
2018-11-07T14:45:12.859Z,100123.73
2018-11-07T14:47:41.616Z,100122.23
2018-11-07T14:50:10.395Z,100125.11
2018-11-07T14:52:38.485Z,100130.09
2018-11-07T14:55:06.847Z,100128.93
2018-11-07T14:57:35.524Z,100141.81
2018-11-07T15:00:03.901Z,100139.78
2018-11-07T15:02:35.065Z,100140.37
2018-11-07T15:05:03.166Z,100139.31
2018-11-07T15:07:31.235Z,100141.55
2018-11-07T15:10:00.436Z,100138.27
2018-11-07T15:12:28.593Z,100138.92
2018-11-07T15:14:56.723Z,100146.00
2018-11-07T15:17:24.877Z,100151.86
2018-11-07T15:19:52.951Z,100150.23
2018-11-07T15:22:21.360Z,100146.30
2018-11-07T15:24:49.516Z,100149.11
2018-11-07T15:27:17.570Z,100154.84
2018-11-07T15:29:45.660Z,100157.93
2018-11-07T15:32:13.807Z,100160.52
2018-11-07T15:34:41.899Z,100154.17
2018-11-07T15:37:09.982Z,100154.30
2018-11-07T15:39:38.091Z,100161.40
2018-11-07T15:42:06.209Z,100162.03
2018-11-07T15:44:34.308Z,100162.80
2018-11-07T15:47:02.472Z,100171.31
2018-11-07T15:49:30.544Z,100168.78
2018-11-07T15:51:58.791Z,100171.70
2018-11-07T15:54:26.819Z,100174.52
2018-11-07T15:56:54.979Z,100172.70
2018-11-07T15:59:23.108Z,100174.70
2018-11-07T16:01:51.264Z,100177.80
2018-11-07T16:04:19.384Z,100178.23
2018-11-07T16:06:47.467Z,100180.01
2018-11-07T16:09:15.579Z,100172.37
2018-11-07T16:11:43.666Z,100174.97
2018-11-07T16:14:11.785Z,100175.87
2018-11-07T16:16:39.897Z,100178.38
2018-11-07T16:19:08.000Z,100177.33
2018-11-07T16:21:36.096Z,100183.51
2018-11-07T16:24:11.021Z,100185.55
2018-11-07T16:26:39.076Z,100183.80
2018-11-07T16:29:07.136Z,100190.15
2018-11-07T16:31:35.298Z,100201.59
2018-11-07T16:34:03.345Z,100202.26
2018-11-07T16:36:31.984Z,100207.05
2018-11-07T16:39:00.114Z,100206.84
2018-11-07T16:41:28.319Z,100209.52
2018-11-07T16:43:56.331Z,100209.73
2018-11-07T16:46:24.542Z,100217.55
2018-11-07T16:48:52.600Z,100222.92
2018-11-07T16:51:20.706Z,100232.12
2018-11-07T16:54:25.899Z,100231.37
2018-11-07T16:56:54.056Z,100232.16
2018-11-07T16:59:22.146Z,100240.72
2018-11-07T17:01:50.261Z,100248.45
2018-11-07T17:04:18.414Z,100250.45
2018-11-07T17:06:46.480Z,100262.44
2018-11-07T17:09:14.641Z,100264.70
2018-11-07T17:11:42.759Z,100274.87
2018-11-07T17:14:10.844Z,100280.34
2018-11-07T17:16:38.971Z,100285.17
2018-11-07T17:19:07.124Z,100295.66
2018-11-07T17:21:35.222Z,100296.04
2018-11-07T17:24:03.348Z,100296.97
2018-11-07T17:26:32.152Z,100292.03
2018-11-07T17:29:00.230Z,100301.73
2018-11-07T17:31:28.615Z,100297.84
2018-11-07T17:33:56.736Z,100306.75
2018-11-07T17:36:24.915Z,100320.75
2018-11-07T17:38:53.124Z,100319.86
2018-11-07T17:41:21.312Z,100321.58
2018-11-07T17:43:49.415Z,100331.34
2018-11-07T17:46:17.513Z,100327.72
2018-11-07T17:48:46.676Z,100324.54
2018-11-07T17:51:14.811Z,100329.30
2018-11-07T17:53:42.926Z,100337.42
2018-11-07T17:56:11.039Z,100331.28
2018-11-07T17:58:39.145Z,100331.61
2018-11-07T18:01:07.300Z,100325.05
2018-11-07T18:03:35.493Z,100332.74
2018-11-07T18:06:03.554Z,100341.31
2018-11-07T18:08:31.915Z,100360.08
2018-11-07T18:11:00.035Z,100358.86
2018-11-07T18:13:28.139Z,100369.31
2018-11-07T18:15:56.251Z,100369.94
2018-11-07T18:18:24.365Z,100375.29
2018-11-07T18:20:52.459Z,100377.47
2018-11-07T18:23:20.586Z,100371.03
2018-11-07T18:25:48.875Z,100368.16
2018-11-07T18:28:16.972Z,100358.78
2018-11-07T18:30:45.107Z,100366.64
2018-11-07T18:33:13.286Z,100358.11
2018-11-07T18:35:41.401Z,100350.83
2018-11-07T18:38:09.571Z,100345.84
2018-11-07T18:40:37.707Z,100349.53
2018-11-07T18:43:05.910Z,100352.71
2018-11-07T18:45:33.957Z,100359.08
2018-11-07T18:48:02.061Z,100383.50
2018-11-07T18:50:30.178Z,100388.22
2018-11-07T18:52:58.303Z,100388.72
2018-11-07T18:55:26.427Z,100389.27
2018-11-07T18:57:54.583Z,100396.67
2018-11-07T19:00:22.665Z,100405.12
2018-11-07T19:02:50.982Z,100399.73
2018-11-07T19:05:19.408Z,100406.16
2018-11-07T19:07:47.509Z,100408.09
2018-11-07T19:10:17.082Z,100404.28
2018-11-07T19:12:45.965Z,100410.47
2018-11-07T19:15:14.971Z,100411.81
2018-11-07T19:17:44.187Z,100424.98
2018-11-07T19:20:13.521Z,100428.41
2018-11-07T19:22:41.795Z,100431.89
2018-11-07T19:25:12.080Z,100438.20
2018-11-07T19:27:40.189Z,100444.60
2018-11-07T19:30:10.469Z,100445.31
2018-11-07T19:32:38.652Z,100447.28
2018-11-07T19:35:08.485Z,100451.34
2018-11-07T19:37:36.661Z,100447.83
2018-11-07T19:40:05.919Z,100435.69
2018-11-07T19:42:34.175Z,100418.47
2018-11-07T19:45:05.099Z,100415.31
2018-11-07T19:47:34.275Z,100412.64
2018-11-07T19:50:02.365Z,100423.88
2018-11-07T19:52:30.475Z,100423.34
2018-11-07T19:54:58.639Z,100413.92
2018-11-07T19:57:26.837Z,100411.56
2018-11-07T19:59:54.986Z,100418.27
2018-11-07T20:02:23.134Z,100416.92
2018-11-07T20:04:51.292Z,100417.28
2018-11-07T20:07:19.382Z,100423.88
2018-11-07T20:09:47.623Z,100441.52
2018-11-07T20:12:15.732Z,100451.59
2018-11-07T20:14:43.857Z,100452.05
2018-11-07T20:17:12.074Z,100451.63
2018-11-07T20:19:40.097Z,100456.87
2018-11-07T20:22:08.223Z,100459.16
2018-11-07T20:24:36.823Z,100456.61
2018-11-07T20:27:05.790Z,100450.75
2018-11-07T20:29:33.910Z,100453.28
2018-11-07T20:32:02.092Z,100452.75
2018-11-07T20:34:30.275Z,100457.30
2018-11-07T20:36:58.448Z,100465.63
2018-11-07T20:39:26.578Z,100467.39
2018-11-07T20:41:54.735Z,100481.20
2018-11-07T20:44:22.872Z,100493.12
2018-11-07T20:46:51.040Z,100491.30
2018-11-07T20:49:19.217Z,100498.66
2018-11-07T20:51:47.443Z,100505.77
2018-11-07T20:54:15.580Z,100505.84
2018-11-07T20:56:43.724Z,100515.77
2018-11-07T20:59:11.851Z,100512.72
2018-11-07T21:01:40.104Z,100510.88
2018-11-07T21:04:08.172Z,100514.56
2018-11-07T21:06:36.320Z,100505.47
2018-11-07T21:09:06.536Z,100514.09
2018-11-07T21:11:34.641Z,100526.39
2018-11-07T21:14:02.758Z,100525.67
2018-11-07T21:16:30.911Z,100528.86
2018-11-07T21:18:59.005Z,100526.73
2018-11-07T21:21:27.216Z,100528.83
2018-11-07T21:23:55.432Z,100535.64
2018-11-07T21:26:23.965Z,100541.17
2018-11-07T21:28:52.691Z,100545.02
2018-11-07T21:31:20.795Z,100556.97
2018-11-07T21:33:48.933Z,100560.44
2018-11-07T21:36:17.066Z,100560.94
2018-11-07T21:38:45.189Z,100559.07
2018-11-07T21:41:13.332Z,100557.32
2018-11-07T21:43:42.052Z,100559.75
2018-11-07T21:46:10.177Z,100561.97
2018-11-07T21:48:38.628Z,100552.37
2018-11-07T21:51:06.742Z,100563.22
2018-11-07T21:53:34.907Z,100565.48
2018-11-07T21:56:03.024Z,100561.89
2018-11-07T21:58:31.127Z,100564.98
2018-11-07T22:00:59.256Z,100561.89
2018-11-07T22:03:27.385Z,100564.27
2018-11-07T22:05:55.483Z,100561.42
2018-11-07T22:08:23.586Z,100558.66
2018-11-07T22:10:51.691Z,100569.13
2018-11-07T22:13:20.073Z,100571.63
2018-11-07T22:15:48.132Z,100571.14
2018-11-07T22:18:16.277Z,100580.30
2018-11-07T22:20:44.753Z,100578.50
2018-11-07T22:23:13.096Z,100578.05
2018-11-07T22:25:41.197Z,100579.71
2018-11-07T22:28:09.307Z,100582.89
2018-11-07T22:30:37.422Z,100582.06
2018-11-07T22:33:05.689Z,100591.64
2018-11-07T22:35:33.884Z,100588.45
2018-11-07T22:38:02.044Z,100593.20
2018-11-07T22:40:31.611Z,100588.45
2018-11-07T22:43:02.354Z,100591.86
2018-11-07T22:45:30.536Z,100589.01
2018-11-07T22:47:58.644Z,100593.83
2018-11-07T22:50:26.953Z,100590.77
2018-11-07T22:52:55.074Z,100596.13
2018-11-07T22:55:23.221Z,100587.55
2018-11-07T22:57:51.380Z,100593.81
2018-11-07T23:00:24.889Z,100603.48
2018-11-07T23:02:55.236Z,100595.78
2018-11-07T23:05:23.428Z,100601.64
2018-11-07T23:07:51.986Z,100600.81
2018-11-07T23:10:20.130Z,100605.53
2018-11-07T23:12:48.716Z,100600.05
2018-11-07T23:15:22.254Z,100606.62
2018-11-07T23:17:50.829Z,100609.63
2018-11-07T23:20:18.998Z,100616.66
2018-11-07T23:22:47.207Z,100627.28
2018-11-07T23:25:15.431Z,100626.95
2018-11-07T23:27:43.624Z,100634.17
2018-11-07T23:30:12.733Z,100638.83
2018-11-07T23:32:40.879Z,100642.25
2018-11-07T23:35:09.439Z,100648.84
2018-11-07T23:37:37.634Z,100644.13
2018-11-07T23:40:06.056Z,100645.52
2018-11-07T23:42:34.460Z,100643.34
2018-11-07T23:45:02.677Z,100652.64
2018-11-07T23:47:30.927Z,100653.66
2018-11-07T23:49:59.060Z,100647.49
2018-11-07T23:52:32.606Z,100655.53
2018-11-07T23:55:01.031Z,100653.66
2018-11-07T23:57:29.227Z,100658.84
2018-11-07T23:59:57.303Z,100665.20
